Time;durP1;ratioP1;P1;durP2;ratioP2;P2;SDS_P1;SDS_P2;PMS_P1;PMS_P2;Temp;Humidity;BMP_temperature;BMP_pressure;BME280_temperature;BME280_humidity;BME280_pressure;Samples;Min_cycle;Max_cycle;Signal;HPM_P1;HPM_P2
2021/09/01 00:01:51;;;;;;;6.97;5.87;;;;;;;24.03;50.26;99239.64;1728467;82;21077;-70
2021/09/01 00:04:17;;;;;;;9.03;6.33;;;;;;;24.04;50.28;99238.02;1743760;81;21133;-68
2021/09/01 00:06:46;;;;;;;8.13;5.42;;;;;;;24.03;50.40;99239.64;1733394;81;21042;-69
2021/09/01 00:09:12;;;;;;;8.50;5.42;;;;;;;24.03;50.82;99235.56;1743226;82;21082;-68
2021/09/01 00:11:41;;;;;;;7.30;5.30;;;;;;;24.03;51.14;99238.28;1722451;82;21572;-69
2021/09/01 00:14:08;;;;;;;7.00;4.83;;;;;;;24.02;51.32;99235.31;1715743;82;21132;-69
2021/09/01 00:16:34;;;;;;;7.95;5.72;;;;;;;24.02;51.38;99233.95;1773692;79;21105;-68
2021/09/01 00:19:06;;;;;;;7.35;5.30;;;;;;;24.01;51.42;99237.22;1776941;79;21013;-70
2021/09/01 00:21:33;;;;;;;8.95;5.67;;;;;;;24.01;51.63;99232.31;1772497;78;21554;-67
2021/09/01 00:24:00;;;;;;;7.85;5.95;;;;;;;24.01;51.69;99229.59;1779581;79;21049;-67
2021/09/01 00:26:27;;;;;;;6.95;6.20;;;;;;;23.99;51.78;99224.47;1767821;79;21029;-67
2021/09/01 00:28:53;;;;;;;8.95;5.62;;;;;;;23.99;51.86;99231.25;1771614;79;21121;-68
2021/09/01 00:31:20;;;;;;;7.92;5.62;;;;;;;23.99;51.84;99232.60;1757415;80;21061;-66
2021/09/01 00:33:47;;;;;;;8.25;6.00;;;;;;;23.99;51.84;99229.89;1758873;79;21096;-67
2021/09/01 00:36:15;;;;;;;7.05;5.40;;;;;;;23.99;51.72;99233.13;1761159;80;21489;-68
2021/09/01 00:38:41;;;;;;;7.12;6.12;;;;;;;23.99;51.67;99238.03;1773631;79;21018;-68
2021/09/01 00:41:07;;;;;;;7.03;6.03;;;;;;;23.99;51.65;99230.41;1755695;79;22249;-68
2021/09/01 00:43:34;;;;;;;6.50;5.70;;;;;;;23.98;51.73;99226.08;1759118;79;21128;-67
2021/09/01 00:46:02;;;;;;;7.03;5.75;;;;;;;23.98;51.78;99226.89;1759627;80;21600;-68
2021/09/01 00:48:28;;;;;;;7.92;5.30;;;;;;;23.97;51.69;99222.56;1762995;80;21564;-68
2021/09/01 00:50:56;;;;;;;8.28;5.67;;;;;;;23.97;51.73;99215.78;1756771;80;21041;-68
2021/09/01 00:53:24;;;;;;;7.70;5.67;;;;;;;23.97;51.74;99219.02;1770684;79;22149;-67
2021/09/01 00:55:51;;;;;;;8.28;6.22;;;;;;;23.96;51.74;99208.72;1775318;79;21073;-66
2021/09/01 00:58:17;;;;;;;7.97;5.58;;;;;;;23.97;51.68;99217.66;1771303;79;21072;-66
2021/09/01 01:01:14;;;;;;;7.97;6.10;;;;;;;23.96;51.62;99209.27;1788761;79;21126;-66
2021/09/01 01:03:26;;;;;;;;;;;;;;;23.95;51.58;99212.50;1771449;79;20986;-66
2021/09/01 01:05:58;;;;;;;6.28;5.67;;;;;;;23.95;51.67;99209.78;1785074;79;20554;-68
2021/09/01 01:08:30;;;;;;;8.40;5.78;;;;;;;23.90;51.79;99209.80;1758713;79;21007;-68
2021/09/01 01:10:58;;;;;;;6.60;5.97;;;;;;;23.90;51.85;99212.51;1760308;79;21093;-66
2021/09/01 01:13:28;;;;;;;6.65;5.65;;;;;;;23.89;51.85;99216.29;1765777;79;21573;-68
2021/09/01 01:15:56;;;;;;;7.92;6.03;;;;;;;23.88;51.93;99215.48;1762401;79;21049;-68
2021/09/01 01:18:23;;;;;;;8.78;6.42;;;;;;;23.87;51.97;99211.13;1777830;79;21593;-69
2021/09/01 01:20:51;;;;;;;6.65;5.83;;;;;;;23.86;52.04;99212.78;1774605;79;21021;-68
2021/09/01 01:23:19;;;;;;;9.65;6.42;;;;;;;23.86;52.08;99212.23;1779154;79;21048;-68
2021/09/01 01:25:46;;;;;;;7.58;6.25;;;;;;;23.86;52.10;99208.70;1777546;79;21046;-68
2021/09/01 01:28:13;;;;;;;6.92;6.08;;;;;;;23.85;52.10;99209.78;1761341;80;21061;-67
2021/09/01 01:30:39;;;;;;;7.53;6.03;;;;;;;23.85;52.11;99208.42;1774568;79;21964;-68
2021/09/01 01:33:07;;;;;;;8.90;6.37;;;;;;;23.83;52.12;99210.04;1758254;80;21031;-69
2021/09/01 01:35:36;;;;;;;9.83;6.87;;;;;;;23.82;52.06;99209.78;1772608;80;21038;-67
2021/09/01 01:38:05;;;;;;;7.15;6.28;;;;;;;23.82;51.99;99206.27;1759539;79;21118;-68
2021/09/01 01:40:32;;;;;;;7.10;6.40;;;;;;;23.82;51.95;99208.42;1755888;79;21066;-68
2021/09/01 01:42:58;;;;;;;7.53;5.78;;;;;;;23.82;51.87;99207.62;1753381;79;21178;-68
2021/09/01 01:45:34;;;;;;;8.68;6.08;;;;;;;23.82;51.79;99199.48;1749366;79;21038;-68
2021/09/01 01:48:01;;;;;;;9.48;6.08;;;;;;;23.82;51.77;99202.20;1765452;80;21538;-67
2021/09/01 01:50:29;;;;;;;6.75;6.15;;;;;;;23.81;51.77;99193.22;1778527;79;21084;-68
2021/09/01 01:52:56;;;;;;;6.75;6.03;;;;;;;23.81;51.81;99191.86;1762350;79;21029;-68
2021/09/01 01:55:22;;;;;;;8.43;5.83;;;;;;;23.80;51.82;99186.70;1773513;79;21061;-68
2021/09/01 01:57:49;;;;;;;6.72;6.12;;;;;;;23.80;51.75;99182.12;1759575;79;21537;-67
2021/09/01 02:00:17;;;;;;;6.87;6.15;;;;;;;23.81;51.76;99185.64;1758798;80;21517;-67
2021/09/01 02:02:43;;;;;;;7.20;6.50;;;;;;;23.80;51.80;99179.92;1757688;79;21008;-69
2021/09/01 02:05:10;;;;;;;9.58;6.25;;;;;;;23.79;51.80;99175.05;1764838;79;20975;-68
2021/09/01 02:07:37;;;;;;;9.70;6.33;;;;;;;23.79;51.77;99172.89;1759690;79;21089;-69
2021/09/01 02:10:06;;;;;;;8.73;6.78;;;;;;;23.79;51.74;99164.75;1763893;79;21085;-69
2021/09/01 02:12:33;;;;;;;7.62;5.90;;;;;;;23.78;51.73;99165.30;1773003;79;21042;-69
2021/09/01 02:15:01;;;;;;;6.50;5.90;;;;;;;23.78;51.70;99161.23;1784410;78;21061;-70
2021/09/01 02:17:28;;;;;;;8.65;6.03;;;;;;;23.78;51.71;99157.16;1779200;80;21292;-69
2021/09/01 02:19:54;;;;;;;6.55;5.50;;;;;;;23.77;51.73;99156.84;1780912;78;21069;-69
2021/09/01 02:22:21;;;;;;;7.03;5.92;;;;;;;23.77;51.75;99157.40;1788961;80;21017;-69
2021/09/01 02:24:48;;;;;;;7.53;5.92;;;;;;;23.75;51.79;99151.69;1783399;80;21616;-69
2021/09/01 02:27:15;;;;;;;6.90;6.25;;;;;;;23.75;51.86;99151.69;1781583;78;21018;-69
2021/09/01 02:29:41;;;;;;;6.42;5.60;;;;;;;23.74;51.85;99151.43;1782360;79;20974;-70
2021/09/01 02:32:08;;;;;;;6.58;5.80;;;;;;;23.72;51.88;99149.53;1784110;78;21100;-68
2021/09/01 02:34:35;;;;;;;8.40;5.90;;;;;;;23.72;51.90;99149.53;1775657;79;21498;-69
2021/09/01 02:37:01;;;;;;;6.05;5.47;;;;;;;23.72;51.93;99157.67;1784138;78;21002;-68
2021/09/01 02:39:28;;;;;;;6.55;5.85;;;;;;;23.70;51.95;99155.77;1787235;79;21044;-69
2021/09/01 02:41:55;;;;;;;6.83;6.12;;;;;;;23.69;51.96;99156.84;1786758;79;21057;-69
2021/09/01 02:44:21;;;;;;;6.70;5.70;;;;;;;23.69;51.96;99153.31;1763336;79;21532;-68
2021/09/01 02:46:47;;;;;;;6.12;5.47;;;;;;;23.67;51.99;99156.84;1771439;78;20986;-67
2021/09/01 02:49:14;;;;;;;6.55;5.85;;;;;;;23.67;52.02;99149.52;1786234;79;21018;-66
2021/09/01 02:51:40;;;;;;;8.23;5.87;;;;;;;23.66;52.08;99158.75;1780108;80;21607;-68
2021/09/01 02:54:07;;;;;;;8.58;6.58;;;;;;;23.65;52.10;99150.88;1789419;79;20974;-69
2021/09/01 02:56:34;;;;;;;7.55;5.92;;;;;;;23.65;52.03;99156.30;1778398;80;22002;-68
2021/09/01 02:59:01;;;;;;;7.35;6.25;;;;;;;23.64;51.93;99155.49;1782620;79;21600;-67
2021/09/01 03:01:27;;;;;;;8.85;5.67;;;;;;;23.64;51.86;99157.37;1780726;80;21022;-67
2021/09/01 03:03:54;;;;;;;8.75;5.92;;;;;;;23.64;51.75;99158.72;1773360;78;21101;-68
2021/09/01 03:06:21;;;;;;;7.53;6.20;;;;;;;23.64;51.74;99148.72;1767664;80;21030;-68
2021/09/01 03:08:47;;;;;;;7.08;6.00;;;;;;;23.64;51.76;99152.78;1767590;80;21816;-68
2021/09/01 03:11:15;;;;;;;8.23;6.37;;;;;;;23.64;51.73;99147.87;1768900;79;21080;-67
2021/09/01 03:13:44;;;;;;;11.55;6.30;;;;;;;23.63;51.82;99148.42;1783444;79;21112;-67
2021/09/01 03:16:11;;;;;;;6.97;5.87;;;;;;;23.62;51.62;99142.72;1787102;78;21084;-68
2021/09/01 03:18:38;;;;;;;8.48;6.33;;;;;;;23.62;51.59;99143.27;1782460;78;21478;-67
2021/09/01 03:21:04;;;;;;;7.15;6.42;;;;;;;23.62;51.46;99140.00;1786825;79;21722;-66
2021/09/01 03:23:30;;;;;;;7.50;5.95;;;;;;;23.62;51.38;99135.94;1782509;79;21022;-67
2021/09/01 03:25:57;;;;;;;9.35;5.55;;;;;;;23.63;51.40;99138.13;1789777;78;21005;-70
2021/09/01 03:28:24;;;;;;;7.67;5.75;;;;;;;23.63;51.40;99132.16;1784018;80;22131;-70
2021/09/01 03:30:50;;;;;;;6.62;5.70;;;;;;;23.63;51.42;99132.70;1787347;78;21539;-68
2021/09/01 03:33:17;;;;;;;6.83;4.97;;;;;;;23.63;51.42;99131.36;1779983;78;21111;-69
2021/09/01 03:35:43;;;;;;;9.05;6.28;;;;;;;23.62;51.33;99126.45;1787505;80;21002;-68
2021/09/01 03:38:09;;;;;;;6.15;5.55;;;;;;;23.62;51.30;99130.52;1785443;78;21011;-69
2021/09/01 03:40:36;;;;;;;15.05;13.18;;;;;;;23.63;51.21;99136.22;1778604;79;21243;-69
2021/09/01 03:43:02;;;;;;;13.30;8.33;;;;;;;23.63;51.11;99140.30;1787323;80;21052;-66
2021/09/01 03:45:29;;;;;;;7.65;6.72;;;;;;;23.63;50.89;99137.58;1789776;78;21219;-66
2021/09/01 03:47:55;;;;;;;8.10;6.85;;;;;;;23.63;50.89;99141.64;1780621;78;21093;-68
2021/09/01 03:50:23;;;;;;;7.53;5.78;;;;;;;23.64;51.13;99137.03;1783871;78;21033;-67
2021/09/01 03:52:49;;;;;;;7.60;5.58;;;;;;;23.65;51.23;99131.89;1783108;80;21553;-67
2021/09/01 03:55:16;;;;;;;9.80;6.37;;;;;;;23.67;51.22;99137.31;1777032;80;21073;-68
2021/09/01 03:57:43;;;;;;;8.93;5.53;;;;;;;23.69;50.97;99143.83;1774095;79;21152;-68
2021/09/01 04:00:12;;;;;;;8.00;5.87;;;;;;;23.69;50.84;99143.83;1782582;79;21101;-67
2021/09/01 04:02:38;;;;;;;8.35;6.62;;;;;;;23.69;50.97;99145.98;1783099;79;21800;-66
2021/09/01 04:05:06;;;;;;;6.70;5.97;;;;;;;23.72;50.97;99150.05;1776859;78;21064;-65
2021/09/01 04:07:32;;;;;;;7.60;6.08;;;;;;;23.70;50.96;99142.21;1766718;78;21599;-65
2021/09/01 04:09:59;;;;;;;12.23;6.30;;;;;;;23.72;50.94;99148.17;1775288;78;22441;-65
2021/09/01 04:12:25;;;;;;;7.83;6.40;;;;;;;23.73;50.63;99147.08;1770990;79;21013;-65
2021/09/01 04:14:51;;;;;;;9.48;5.58;;;;;;;23.73;50.49;99148.98;1787974;78;21628;-66
2021/09/01 04:17:18;;;;;;;9.58;6.03;;;;;;;23.72;50.60;99147.34;1779175;79;21552;-66
2021/09/01 04:19:44;;;;;;;9.78;6.53;;;;;;;23.73;50.62;99144.91;1778494;79;21026;-67
2021/09/01 04:22:11;;;;;;;7.35;5.95;;;;;;;23.74;50.47;99148.72;1786297;80;21143;-67
2021/09/01 04:24:37;;;;;;;7.78;6.00;;;;;;;23.74;50.45;99150.08;1778542;80;21553;-67
2021/09/01 04:27:04;;;;;;;7.87;6.12;;;;;;;23.77;50.42;99138.41;1776997;78;20998;-69
2021/09/01 04:29:32;;;;;;;8.25;5.85;;;;;;;23.74;50.43;99133.80;1790827;78;21065;-68
2021/09/01 04:31:59;;;;;;;7.95;6.42;;;;;;;23.76;50.45;99136.25;1773423;78;21065;-68
2021/09/01 04:34:25;;;;;;;8.45;6.33;;;;;;;23.77;50.38;99131.08;1788458;80;21112;-65
2021/09/01 04:36:51;;;;;;;7.05;5.92;;;;;;;23.77;50.37;99128.92;1787917;80;21049;-67
2021/09/01 04:39:18;;;;;;;6.70;5.95;;;;;;;23.78;50.29;99131.89;1786122;78;21085;-67
2021/09/01 04:41:45;;;;;;;11.88;6.75;;;;;;;23.79;50.22;99134.92;1761954;79;21038;-66
2021/09/01 04:44:12;;;;;;;7.20;5.53;;;;;;;23.79;50.10;99136.28;1781493;78;21041;-68
2021/09/01 04:46:39;;;;;;;12.05;6.58;;;;;;;23.79;50.12;99134.38;1785099;80;21856;-66
2021/09/01 04:49:05;;;;;;;8.55;5.70;;;;;;;23.80;50.21;99133.82;1787886;78;20998;-66
2021/09/01 04:51:31;;;;;;;9.45;5.75;;;;;;;23.80;50.10;99135.17;1768539;79;21611;-67
2021/09/01 04:53:58;;;;;;;9.58;5.97;;;;;;;23.82;50.09;99130.33;1776400;80;21024;-65
2021/09/01 04:56:24;;;;;;;7.08;6.37;;;;;;;23.82;50.02;99128.97;1788825;78;21576;-68
2021/09/01 04:58:51;;;;;;;10.30;6.33;;;;;;;23.83;50.03;99130.03;1781878;78;21173;-66
2021/09/01 05:01:17;;;;;;;8.68;6.33;;;;;;;23.84;50.03;99129.52;1769372;79;21525;-67
2021/09/01 05:03:44;;;;;;;7.92;5.78;;;;;;;23.84;49.96;99124.09;1782214;80;21054;-65
2021/09/01 05:06:10;;;;;;;10.60;6.28;;;;;;;23.86;49.87;99130.05;1776610;80;21013;-65
2021/09/01 05:08:37;;;;;;;7.47;5.60;;;;;;;23.86;49.88;99122.72;1779180;78;21048;-65
2021/09/01 05:11:04;;;;;;;9.20;6.87;;;;;;;23.88;49.86;99119.20;1771958;78;21137;-66
2021/09/01 05:13:31;;;;;;;9.43;6.17;;;;;;;23.89;49.92;99118.64;1780520;79;21030;-66
2021/09/01 05:15:58;;;;;;;6.87;6.00;;;;;;;23.89;49.96;99116.77;1782547;78;21374;-67
2021/09/01 05:18:25;;;;;;;8.20;6.70;;;;;;;23.91;49.86;99124.61;1788732;78;21052;-67
2021/09/01 05:20:53;;;;;;;7.33;5.60;;;;;;;23.92;49.81;99116.76;1773199;79;21049;-67
2021/09/01 05:23:19;;;;;;;10.82;6.12;;;;;;;23.92;49.80;99121.63;1775782;79;21955;-67
2021/09/01 05:26:00;;;;;;;10.50;7.00;;;;;;;23.94;49.83;99118.66;1777359;79;21037;-67
2021/09/01 05:28:29;;;;;;;8.50;6.35;;;;;;;23.95;49.84;99117.55;1764337;79;21069;-69
2021/09/01 05:30:57;;;;;;;8.93;6.78;;;;;;;23.98;49.79;99126.52;1761906;78;21151;-69
2021/09/01 05:33:23;;;;;;;10.18;6.70;;;;;;;24.01;49.66;99131.41;1764976;80;21046;-67
2021/09/01 05:35:50;;;;;;;9.05;6.90;;;;;;;24.02;49.48;99127.59;1776107;79;21139;-66
2021/09/01 05:38:18;;;;;;;13.58;6.83;;;;;;;24.04;49.58;99130.85;1779575;78;21342;-69
2021/09/01 05:40:46;;;;;;;9.90;6.22;;;;;;;24.06;49.85;99129.23;1780276;79;21459;-69
2021/09/01 05:43:17;;;;;;;11.22;6.67;;;;;;;24.07;49.85;99132.23;1788646;79;21014;-68
2021/09/01 05:45:45;;;;;;;11.28;6.05;;;;;;;24.06;49.40;99134.10;1760892;79;21030;-67
2021/09/01 05:48:11;;;;;;;15.78;7.10;;;;;;;24.04;49.23;99133.56;1766783;79;21144;-67
2021/09/01 05:50:44;;;;;;;10.38;6.28;;;;;;;24.01;49.04;99134.13;1769992;80;21235;-66
2021/09/01 05:53:10;;;;;;;10.43;6.92;;;;;;;23.99;49.25;99132.23;1773716;79;21159;-70
2021/09/01 05:55:41;;;;;;;10.30;6.58;;;;;;;23.99;49.63;99127.32;1776443;79;21049;-71
2021/09/01 05:58:06;;;;;;;12.68;6.58;;;;;;;24.00;49.63;99122.19;1778224;79;21009;-64
2021/09/01 06:00:35;;;;;;;13.13;6.67;;;;;;;24.02;49.93;99117.30;1770985;79;21537;-66
2021/09/01 06:03:22;;;;;;;11.48;6.70;;;;;;;24.05;50.45;99118.09;1777469;79;21030;-66
2021/09/01 06:05:54;;;;;;;7.90;6.65;;;;;;;24.11;50.65;99120.55;1764515;79;21046;-67
2021/09/01 06:08:23;;;;;;;13.90;6.67;;;;;;;24.18;50.66;99118.90;1775741;79;21081;-66
2021/09/01 06:10:50;;;;;;;14.53;6.55;;;;;;;24.24;50.64;99118.35;1777832;78;21144;-67
2021/09/01 06:13:17;;;;;;;11.20;7.12;;;;;;;24.29;50.75;99114.28;1774862;79;21463;-66
2021/09/01 06:15:44;;;;;;;9.73;6.15;;;;;;;24.34;50.88;99119.72;1734907;80;20995;-66
2021/09/01 06:18:10;;;;;;;7.45;5.78;;;;;;;24.39;50.93;99121.59;1763819;79;21050;-68
2021/09/01 06:20:37;;;;;;;14.73;6.42;;;;;;;24.44;50.92;99114.81;1766065;79;21014;-67
2021/09/01 06:23:04;;;;;;;9.63;5.95;;;;;;;24.48;50.87;99120.77;1758585;79;21009;-67
2021/09/01 06:25:31;;;;;;;10.40;6.12;;;;;;;24.51;50.84;99120.25;1773640;79;21195;-69
2021/09/01 06:27:58;;;;;;;10.55;6.12;;;;;;;24.55;50.79;99127.31;1775886;79;21042;-66
2021/09/01 06:30:26;;;;;;;15.08;6.05;;;;;;;24.59;50.69;99130.27;1773529;79;21483;-68
2021/09/01 06:34:41;;;;;;;13.55;6.58;;;;;;;24.69;50.41;99119.39;1850048;77;22705;-67
2021/09/01 06:37:07;;;;;;;9.53;5.87;;;;;;;24.67;50.41;99128.36;1820595;76;21091;-66
2021/09/01 06:39:34;;;;;;;9.00;6.15;;;;;;;24.72;50.20;99129.69;1824583;78;21150;-65
2021/09/01 06:42:00;;;;;;;10.38;6.97;;;;;;;24.74;49.82;99126.15;1825193;77;21051;-66
2021/09/01 06:44:26;;;;;;;9.08;5.87;;;;;;;24.77;49.69;99131.59;1810093;76;21568;-66
2021/09/01 06:46:53;;;;;;;8.73;6.08;;;;;;;24.79;49.81;99127.50;1805961;78;21131;-65
2021/09/01 06:49:19;;;;;;;10.23;5.80;;;;;;;24.81;50.16;99132.11;1820665;77;21050;-64
2021/09/01 06:51:46;;;;;;;9.75;5.95;;;;;;;24.83;50.37;99134.00;1815999;77;21044;-65
2021/09/01 06:54:12;;;;;;;10.53;6.20;;;;;;;24.85;50.42;99131.81;1806927;77;21018;-66
2021/09/01 06:56:39;;;;;;;10.90;5.83;;;;;;;24.87;50.36;99130.19;1808136;76;20927;-64
2021/09/01 06:59:05;;;;;;;14.87;6.50;;;;;;;24.90;50.45;99122.86;1816850;78;21084;-69
2021/09/01 07:01:31;;;;;;;9.95;6.65;;;;;;;24.91;50.36;99126.63;1822881;76;21057;-67
2021/09/01 07:03:58;;;;;;;9.30;5.65;;;;;;;24.93;50.26;99128.52;1822099;77;21081;-65
2021/09/01 07:06:24;;;;;;;8.73;6.25;;;;;;;24.97;50.11;99127.98;1810054;78;21537;-66
2021/09/01 07:08:51;;;;;;;10.30;6.20;;;;;;;24.98;50.17;99132.33;1818477;76;21014;-67
2021/09/01 07:11:17;;;;;;;6.92;6.22;;;;;;;24.99;50.23;99126.59;1812786;76;21123;-65
2021/09/01 07:13:44;;;;;;;8.83;6.05;;;;;;;25.01;50.37;99124.97;1815028;76;21078;-65
2021/09/01 07:16:13;;;;;;;11.08;5.80;;;;;;;25.01;50.38;99127.69;1817530;76;21126;-66
2021/09/01 07:18:41;;;;;;;8.95;5.37;;;;;;;25.02;50.31;99126.61;1801038;78;21062;-67
2021/09/01 07:21:07;;;;;;;11.05;6.12;;;;;;;25.03;50.39;99135.02;1801159;78;21050;-66
2021/09/01 07:23:33;;;;;;;9.20;5.62;;;;;;;25.04;50.26;99125.23;1800665;77;21129;-66
2021/09/01 07:26:00;;;;;;;8.80;5.90;;;;;;;25.04;50.35;99132.02;1802274;77;21050;-66
2021/09/01 07:28:26;;;;;;;25.12;15.98;;;;;;;25.06;50.35;99130.39;1808648;77;21119;-66
2021/09/01 07:30:53;;;;;;;72.62;44.38;;;;;;;25.07;50.27;99132.84;1808765;78;21369;-68
2021/09/01 07:33:19;;;;;;;47.67;30.02;;;;;;;25.09;50.38;99135.25;1779787;78;21099;-66
2021/09/01 07:35:46;;;;;;;40.03;24.30;;;;;;;25.10;50.47;99140.41;1822067;76;21607;-66
2021/09/01 07:38:12;;;;;;;38.80;23.20;;;;;;;25.12;50.47;99136.87;1824192;76;21019;-64
2021/09/01 07:40:39;;;;;;;32.28;19.62;;;;;;;25.15;50.56;99138.23;1825829;78;21830;-67
2021/09/01 07:43:05;;;;;;;26.73;17.37;;;;;;;25.17;50.41;99137.94;1825134;78;21065;-66
2021/09/01 07:45:32;;;;;;;23.90;14.38;;;;;;;25.19;50.53;99138.47;1813172;76;21060;-66
2021/09/01 07:47:58;;;;;;;26.80;15.48;;;;;;;25.21;50.48;99140.38;1825438;77;21172;-66
2021/09/01 07:50:28;;;;;;;20.68;13.75;;;;;;;25.23;50.47;99139.59;1814102;76;21885;-68
2021/09/01 07:52:54;;;;;;;18.37;12.23;;;;;;;25.25;50.49;99140.13;1813113;77;21828;-66
2021/09/01 07:55:21;;;;;;;21.57;12.82;;;;;;;25.26;50.54;99142.53;1812701;78;21092;-67
2021/09/01 07:57:49;;;;;;;16.60;11.50;;;;;;;25.28;50.59;99146.34;1813292;77;21531;-67
2021/09/01 08:00:17;;;;;;;15.20;10.65;;;;;;;25.29;50.56;99135.75;1811733;77;21104;-66
2021/09/01 08:02:43;;;;;;;14.98;10.60;;;;;;;25.30;50.66;99134.64;1816220;78;21492;-65
2021/09/01 08:05:09;;;;;;;13.58;9.98;;;;;;;25.31;50.84;99133.01;1815369;77;21081;-64
2021/09/01 08:07:36;;;;;;;14.87;9.15;;;;;;;25.32;51.08;99137.89;1795409;78;21396;-66
2021/09/01 08:10:04;;;;;;;11.63;8.78;;;;;;;25.33;51.23;99143.61;1800115;77;21162;-62
2021/09/01 08:12:30;;;;;;;11.75;7.97;;;;;;;25.34;51.31;99137.61;1806975;77;21038;-64
2021/09/01 08:14:56;;;;;;;12.33;8.60;;;;;;;25.37;51.32;99143.86;1816577;78;21077;-62
2021/09/01 08:17:23;;;;;;;14.85;8.78;;;;;;;25.37;51.23;99138.42;1816991;78;21070;-63
2021/09/01 08:19:49;;;;;;;12.75;7.92;;;;;;;25.39;51.13;99138.95;1808621;77;21041;-63
2021/09/01 08:22:16;;;;;;;10.75;7.87;;;;;;;25.40;51.07;99146.84;1815844;78;21125;-64
2021/09/01 08:24:43;;;;;;;10.65;8.23;;;;;;;25.41;51.03;99141.65;1817433;77;21097;-63
2021/09/01 08:27:11;;;;;;;10.05;7.95;;;;;;;25.44;51.06;99145.70;1795089;78;21062;-63
2021/09/01 08:29:38;;;;;;;11.45;7.75;;;;;;;25.45;51.12;99144.62;1795390;78;21086;-65
2021/09/01 08:32:06;;;;;;;10.88;7.25;;;;;;;25.47;51.14;99135.64;1814954;78;21172;-63
2021/09/01 08:34:32;;;;;;;8.70;7.45;;;;;;;25.47;51.16;99143.23;1810899;79;21548;-64
2021/09/01 08:37:00;;;;;;;8.68;7.17;;;;;;;25.48;51.15;99138.08;1799501;77;21030;-63
2021/09/01 08:39:26;;;;;;;10.78;7.05;;;;;;;25.49;51.10;99144.33;1795565;77;22206;-64
2021/09/01 08:41:53;;;;;;;10.00;7.25;;;;;;;25.51;51.03;99146.22;1787795;77;21092;-63
2021/09/01 08:44:20;;;;;;;9.13;6.95;;;;;;;25.51;51.01;99140.22;1788670;78;21532;-65
2021/09/01 08:46:50;;;;;;;9.18;6.80;;;;;;;25.54;50.98;99146.22;1798555;77;21090;-65
2021/09/01 08:49:20;;;;;;;8.95;7.12;;;;;;;25.54;50.96;99138.06;1799630;77;22107;-64
2021/09/01 08:51:47;;;;;;;9.13;7.25;;;;;;;25.55;51.01;99138.31;1803673;77;21058;-64
2021/09/01 08:54:14;;;;;;;8.63;6.53;;;;;;;25.57;50.97;99141.56;1802702;77;21102;-65
2021/09/01 08:56:42;;;;;;;7.65;6.50;;;;;;;25.59;50.86;99139.37;1809346;79;21006;-65
2021/09/01 08:59:09;;;;;;;9.80;7.30;;;;;;;25.61;50.76;99139.90;1810134;77;21124;-64
2021/09/01 09:01:55;;;;;;;9.13;6.58;;;;;;;25.63;50.60;99144.50;1807260;77;21083;-63
2021/09/01 09:04:25;;;;;;;7.75;6.10;;;;;;;25.64;50.45;99137.43;1798967;77;21573;-64
2021/09/01 09:06:58;;;;;;;6.78;5.80;;;;;;;25.66;50.27;99136.59;1807508;77;21120;-66
2021/09/01 09:09:28;;;;;;;8.28;5.92;;;;;;;25.68;50.07;99137.13;1801690;77;21050;-63
2021/09/01 09:11:56;;;;;;;8.03;6.45;;;;;;;25.70;49.90;99138.20;1795824;78;21123;-64
2021/09/01 09:14:29;;;;;;;10.08;6.37;;;;;;;25.72;49.87;99135.21;1789560;77;21054;-65
2021/09/01 09:17:13;;;;;;;11.60;6.37;;;;;;;25.75;49.74;99139.55;1801351;77;21551;-65
2021/09/01 09:19:50;;;;;;;8.20;5.60;;;;;;;25.77;49.60;99137.35;1792196;77;21139;-64
2021/09/01 09:22:30;;;;;;;8.48;5.72;;;;;;;25.78;49.50;99140.88;1793779;79;21109;-64
2021/09/01 09:25:12;;;;;;;9.25;6.05;;;;;;;25.78;49.42;99128.08;1805098;77;21093;-65
2021/09/01 09:27:49;;;;;;;6.60;5.90;;;;;;;25.80;49.45;99135.96;1788275;79;21105;-65
2021/09/01 09:30:32;;;;;;;6.47;5.30;;;;;;;25.80;49.47;99133.24;1799782;79;21069;-65
2021/09/01 09:33:15;;;;;;;8.80;5.12;;;;;;;25.82;49.50;99126.97;1815552;77;21821;-64
2021/09/01 09:35:59;;;;;;;6.25;5.53;;;;;;;25.82;49.54;99126.97;1795630;78;21069;-65
2021/09/01 09:38:45;;;;;;;6.05;4.97;;;;;;;25.84;49.61;99135.66;1819843;77;21052;-64
2021/09/01 09:41:25;;;;;;;7.95;5.33;;;;;;;25.84;49.64;99135.09;1818554;77;21100;-64
2021/09/01 09:43:55;;;;;;;7.22;5.67;;;;;;;25.85;49.69;99130.50;1826154;77;21561;-63
2021/09/01 09:46:22;;;;;;;7.33;5.17;;;;;;;25.86;49.68;99132.94;1813323;77;22139;-63
2021/09/01 09:48:49;;;;;;;7.15;5.15;;;;;;;25.88;49.67;99127.19;1817573;77;21037;-64
2021/09/01 09:51:20;;;;;;;6.10;4.65;;;;;;;25.89;49.70;99124.75;1810894;77;21053;-64
2021/09/01 09:53:51;;;;;;;6.20;5.10;;;;;;;25.90;49.66;99123.11;1807792;78;21049;-64
2021/09/01 09:56:26;;;;;;;5.58;4.78;;;;;;;25.92;49.62;99125.55;1810318;78;21069;-64
2021/09/01 09:58:55;;;;;;;6.60;4.78;;;;;;;25.94;49.57;99120.66;1801372;78;21109;-63
2021/09/01 10:01:25;;;;;;;5.78;5.12;;;;;;;25.95;49.32;99115.47;1804586;77;21066;-65
2021/09/01 10:03:52;;;;;;;5.10;4.50;;;;;;;25.98;48.99;99109.47;1809423;77;21056;-64
2021/09/01 10:06:19;;;;;;;8.10;4.75;;;;;;;26.02;48.96;99104.24;1803754;77;21150;-64
2021/09/01 10:08:48;;;;;;;5.55;4.95;;;;;;;26.05;48.86;99099.60;1809483;77;21227;-64
2021/09/01 10:11:16;;;;;;;7.28;4.47;;;;;;;26.09;49.18;99098.73;1782479;78;21179;-65
2021/09/01 10:13:46;;;;;;;5.72;4.35;;;;;;;26.15;49.33;99094.61;1807599;78;21058;-64
2021/09/01 10:16:25;;;;;;;9.83;5.35;;;;;;;26.19;49.56;99099.21;1774533;78;21584;-65
2021/09/01 10:19:09;;;;;;;6.20;4.78;;;;;;;26.22;49.35;99099.98;1816503;78;21096;-64
2021/09/01 10:21:39;;;;;;;6.08;4.42;;;;;;;26.24;49.14;99093.70;1798474;78;21131;-64
2021/09/01 10:24:25;;;;;;;6.53;5.00;;;;;;;26.26;49.28;99098.86;1802598;78;21139;-63
2021/09/01 10:27:12;;;;;;;6.20;4.58;;;;;;;26.27;49.14;99096.41;1807309;77;21017;-64
2021/09/01 10:30:07;;;;;;;7.05;4.53;;;;;;;26.29;49.01;99090.12;1806986;77;21120;-64
2021/09/01 10:32:44;;;;;;;5.45;4.58;;;;;;;26.32;48.92;99090.90;1756627;79;21135;-64
2021/09/01 10:35:18;;;;;;;7.03;4.70;;;;;;;26.35;48.93;99090.34;1763430;78;21115;-63
2021/09/01 10:37:56;;;;;;;4.15;3.72;;;;;;;26.39;48.91;99086.48;1799156;77;21122;-65
2021/09/01 10:40:31;;;;;;;4.60;4.20;;;;;;;26.44;48.94;99080.97;1814469;77;21072;-64
2021/09/01 10:43:00;;;;;;;4.25;3.85;;;;;;;26.47;49.05;99081.20;1789545;78;21103;-65
2021/09/01 10:45:50;;;;;;;5.47;4.62;;;;;;;26.52;48.96;99080.88;1802243;77;21026;-64
2021/09/01 10:48:17;;;;;;;6.25;4.28;;;;;;;26.56;48.80;99076.48;1811868;78;21096;-63
2021/09/01 10:50:46;;;;;;;5.10;4.50;;;;;;;26.61;48.67;99076.46;1816031;77;21075;-65
2021/09/01 10:53:28;;;;;;;8.38;4.05;;;;;;;26.64;48.70;99077.25;1812796;78;21104;-64
2021/09/01 10:56:04;;;;;;;4.33;3.75;;;;;;;26.69;48.66;99079.89;1814163;77;21085;-68
2021/09/01 10:58:42;;;;;;;7.60;4.25;;;;;;;26.72;48.61;99075.24;1816832;77;21151;-69
2021/09/01 11:01:16;;;;;;;6.85;5.08;;;;;;;26.74;46.38;99085.85;1816900;78;21537;-67
2021/09/01 11:04:02;;;;;;;6.42;4.28;;;;;;;26.74;45.73;99078.48;1815240;77;21050;-68
2021/09/01 11:06:35;;;;;;;6.70;4.97;;;;;;;26.74;44.87;99078.48;1814858;77;21089;-68
2021/09/01 11:09:14;;;;;;;7.17;4.45;;;;;;;26.76;45.55;99078.20;1808154;77;21518;-69
2021/09/01 11:11:45;;;;;;;7.10;4.53;;;;;;;26.78;44.74;99084.16;1780441;78;21075;-67
2021/09/01 11:14:33;;;;;;;7.67;4.33;;;;;;;26.78;44.32;99082.80;1798988;77;21518;-67
2021/09/01 11:17:01;;;;;;;7.42;3.87;;;;;;;26.78;43.19;99083.61;1815398;77;21486;-66
2021/09/01 11:19:29;;;;;;;6.75;4.33;;;;;;;26.76;42.77;99087.17;1803140;77;21069;-68
2021/09/01 11:21:56;;;;;;;6.25;4.37;;;;;;;26.73;43.15;99083.66;1816615;77;21070;-67
2021/09/01 11:24:22;;;;;;;3.90;3.60;;;;;;;26.68;42.50;99084.55;1814700;78;21573;-67
2021/09/01 11:26:54;;;;;;;4.80;3.20;;;;;;;26.62;42.26;99083.55;1809948;78;21072;-67
2021/09/01 11:29:33;;;;;;;5.03;3.75;;;;;;;26.57;41.90;99082.20;1809344;77;21146;-67
2021/09/01 11:32:00;;;;;;;4.00;3.35;;;;;;;26.51;41.91;99073.83;1810572;78;21050;-68
2021/09/01 11:34:27;;;;;;;4.17;3.47;;;;;;;26.45;42.35;99071.16;1817237;78;21048;-69
2021/09/01 11:36:53;;;;;;;4.80;4.22;;;;;;;26.41;41.58;99076.92;1805915;77;21462;-67
2021/09/01 11:39:19;;;;;;;4.33;3.92;;;;;;;26.37;41.01;99076.44;1812744;78;21027;-67
2021/09/01 11:41:47;;;;;;;7.37;3.40;;;;;;;26.32;41.32;99073.76;1805436;79;22336;-67